Tiempo atmosférico en la estación meteorológica de Motilla Del Palancar, Cuenca (830 m.)



Fecha
DESCASC
Temp. máxima en grados centígrados (hora)
DESCASC
Temp. mínima en grados centígrados (hora)
DESCASC
Temp. media en grados centígrados
DESCASC
Racha de viento máxima en m/sg (hora)
DESCASC
Velocidad máxima media en intervalos de 10 minutos(hora)
DESCASC
Precipitaciones diarias en mm
DESCASC
Precipitaciones de 00:00 a 06:00 en mm
DESCASC
Precipitaciones de 06:00 a 12:00 en mm
DESCASC
Precipitaciones de 12:00 a 18:00 en mm
DESCASC
Precipitaciones de 18:00 a 24:00 en mm
DESCASC
28-02-2021 11.1 (15:50) 4.1 (02:00) 7.6 10 (12:10) 5.56 (12:10) 0 0 0 0 0
27-02-2021 16.3 (16:10) -0.1 (07:40) 8.1 7.22 (15:00) 4.17 (14:40) 0 0 0 0 0
26-02-2021 14.2 (14:40) 3.3 (23:59) 8.7 8.33 (12:50) 4.72 (12:40) 0 0 0 0 0
25-02-2021 14.2 (16:50) 5.9 (00:00) 10 8.33 (16:00) 3.89 (13:40) 0 0 0 0 0
24-02-2021 13.1 (16:00) 3.5 (00:00) 8.3 8.06 (14:50) 4.17 (18:00) 0 0 0 0 0
23-02-2021 11.8 (17:50) 2.1 (00:00) 7 6.94 (11:40) 3.61 (12:00) 0 0 0 0 0
22-02-2021 6.8 (17:20) 4 (00:00) 5.4 10.56 (01:30) 5.83 (01:40) 3.2 2 1.2 0 0
21-02-2021 10.3 (13:40) 5.8 (00:00) 8.1 12.5 (22:10) 6.11 (22:10) 9.8 0 0 0 9.8
20-02-2021 18.5 (15:20) 3.6 (00:00) 11 10.28 (23:30) 5 (16:30) 0 0 0 0 0
19-02-2021 19.2 (16:10) 0.9 (00:00) 10.1 7.78 (16:30) 4.44 (16:30) 0 0 0 0 0
18-02-2021 17.7 (16:30) 2 (00:00) 9.9 7.78 (14:40) 4.72 (16:00) 0 0 0 0 0
17-02-2021 19.9 (15:40) 1.5 (00:00) 10.7 6.39 (16:20) 4.17 (15:50) 0 0 0 0 0
16-02-2021 16.1 (16:20) -0.6 (-00:0) 7.8 6.67 (15:50) 3.61 (14:50) 0 0 0 0 0
15-02-2021 12.3 (16:40) 3.6 (00:00) 8 7.5 (15:00) 3.89 (14:50) 0 0 0 0 0
14-02-2021 -- (--) -- (--) -- -- (--) -- (--) -- -- 0 0 0
13-02-2021 13.5 (16:10) 0.9 (00:00) 7.2 9.72 (17:00) 5.56 (17:00) 0 0 0 0 0
12-02-2021 12.7 (16:20) 5.9 (00:00) 9.3 13.61 (16:10) 7.5 (14:40) 2.4 0 2.4 0 0
11-02-2021 12.3 (15:00) 1.2 (00:00) 6.8 8.33 (13:10) 5.28 (13:10) 0 0 0 0 0
10-02-2021 11.7 (16:30) 3.1 (00:00) 7.4 16.39 (04:40) 10.28 (07:00) 1.4 0.2 1.2 0 0
09-02-2021 9.7 (15:20) 5.1 (00:00) 7.4 16.67 (17:10) 10.28 (15:40) 3 0 0 2.2 0.8
08-02-2021 8.5 (16:30) 4.5 (00:00) 6.5 14.72 (09:30) 9.72 (08:10) 2.8 0.4 0.8 1.6 0
07-02-2021 9.1 (16:20) 3.4 (00:00) 6.3 12.5 (20:20) 6.94 (20:20) 2.4 1.8 0.2 0 0.4
06-02-2021 9.5 (13:50) 5.1 (00:00) 7.3 10.28 (12:40) 7.22 (12:50) 3.8 2.8 0.4 0.6 0
05-02-2021 13.7 (15:10) 6.1 (00:00) 9.9 10.83 (18:40) 5.56 (18:10) 0 0 0 0 0
04-02-2021 16.8 (16:00) 5 (00:00) 10.9 7.78 (12:40) 4.44 (12:40) 0 0 0 0 0
03-02-2021 13.6 (16:20) 6.4 (00:00) 10 8.06 (12:20) 4.44 (12:20) 0 0 0 0 0
02-02-2021 13.5 (14:50) 6.8 (00:00) 10.2 10 (14:00) 5.83 (14:10) 0 0 0 0 0
01-02-2021 13.8 (15:30) 8 (00:00) 10.9 13.61 (16:20) 7.5 (15:00) 0 0 0 0 0
31-01-2021 10.5 (23:00) 4.8 (00:00) 7.7 14.17 (11:00) 8.33 (11:00) 1.2 0 0 1.2 0

Gráficas

Temp. máximas Temp. mínimas Temp. medias Precipitaciones Rachas de viento máximas Velocidades máximas media en intervalos de 10 minutos

Datos horarios

Fecha y hora oficial Temperatura (ºC) Velocidad del viento (km/h) Dirección del viento Racha (km/h) Dirección de racha Precipitación (mm) Presión (hPa) Tendencia (hPa) Humedad (%)
2021-03-01 23:00:00 6.7 4 Este 19 Este 0 -- -- 96
2021-03-01 22:00:00 6.6 7 Este 22 Sudeste 0 -- -- 96
2021-03-01 21:00:00 6.7 9 Sudeste 22 Este 0 -- -- 96
2021-03-01 20:00:00 6.9 12 Este 27 Este 0 -- -- 95
2021-03-01 19:00:00 7.1 6 Este 18 Este 0 -- -- 94
2021-03-01 18:00:00 7.7 7 Este 23 Este 0 -- -- 89
2021-03-01 17:00:00 7.9 6 Este 28 Este 0 -- -- 86
2021-03-01 16:00:00 8.5 12 Este 41 Sudeste 0 -- -- 83
2021-03-01 15:00:00 8.5 14 Este 36 Este 0 -- -- 82
2021-03-01 14:00:00 8.8 12 Este 37 Este 0 -- -- 82
2021-03-01 13:00:00 8 10 Este 33 Sudeste 0 -- -- 87
2021-03-01 12:00:00 7.4 12 Este 37 Este 0 -- -- 90
2021-03-01 11:00:00 7.7 13 Este 35 Este 0 -- -- 87
2021-03-01 10:00:00 7.4 14 Este 39 Sudeste 0 -- -- 87
2021-03-01 09:00:00 6.8 9 Este 31 Este 0 -- -- 90
2021-03-01 08:00:00 6.7 11 Este 34 Este 0 -- -- 91
2021-03-01 07:00:00 6.6 9 Este 35 Nordeste 0 -- -- 89
2021-03-01 06:00:00 6.5 10 Este 29 Este 0 -- -- 89
2021-03-01 05:00:00 6.4 8 Este 22 Sudeste 0 -- -- 88
2021-03-01 04:00:00 6.3 6 Este 24 Nordeste 0 -- -- 87
2021-03-01 03:00:00 6.2 6 Este 27 Este 0 -- -- 88
2021-03-01 02:00:00 6.3 10 Sudeste 29 Este 0 -- -- 86
2021-03-01 01:00:00 6.3 10 Este 26 Este 0 -- -- 85
2021-03-01 00:00:00 6.2 9 Este 31 Sudeste 0 -- -- 86
2021-02-28 23:00:00 6.2 12 Este 28 Sudeste 0 -- -- 86
2021-02-28 22:00:00 6.1 10 Este 25 Sudeste 0 -- -- 85
2021-02-28 21:00:00 6.1 8 Este 35 Nordeste 0 -- -- 83
2021-02-28 20:00:00 7.4 11 Este 36 Sudeste 0 -- -- 84
2021-02-28 19:00:00 7.9 14 Este 32 Sudeste 0 -- -- 82
2021-02-28 18:00:00 8.8 14 Este 32 Sudeste 0 -- -- 80
2021-02-28 17:00:00 9.4 17 Este 31 Sudeste 0 -- -- 76
2021-02-28 16:00:00 10.8 15 Este 34 Sudeste 0 -- -- 70
2021-02-28 15:00:00 10.7 16 Sudeste 36 Este 0 -- -- 65
2021-02-28 14:00:00 10.6 15 Sudeste 33 Sudeste 0 -- -- 73
2021-02-28 13:00:00 9.8 18 Sudeste 36 Sudeste 0 -- -- 77
2021-02-28 12:00:00 10 17 Sudeste 34 Sudeste 0 -- -- 73
2021-02-28 11:00:00 8.6 14 Sudeste 28 Sudeste 0 -- -- 80
2021-02-28 10:00:00 7.4 14 Sudeste 27 Este 0 -- -- 85
2021-02-28 09:00:00 5.9 12 Este 21 Sudeste 0 -- -- 94
2021-02-28 08:00:00 4.9 6 Este 19 Este 0 -- -- 92
2021-02-28 07:00:00 5.6 10 Sudeste 21 Este 0 -- -- 89
2021-02-28 06:00:00 5.9 10 Sudeste 22 Este 0 -- -- 87
2021-02-28 05:00:00 5.6 9 Sudeste 25 Sudeste 0 -- -- 89
2021-02-28 04:00:00 5.6 9 Este 24 Este 0 -- -- 88
2021-02-28 03:00:00 4.5 7 Este 23 Sudeste 0 -- -- 94
2021-02-28 02:00:00 4.1 7 Este 22 Sudeste 0 -- -- 91
2021-02-28 01:00:00 5.3 8 Este 20 Nordeste 0 -- -- 85
2021-02-28 00:00:00 5.8 6 Este 20 Este 0 -- -- 82
2021-02-27 23:00:00 6.6 8 Este 20 Este 0 -- -- 79
2021-02-27 22:00:00 6.9 14 Nordeste 22 Este 0 -- -- 70
2021-02-27 21:00:00 7.7 8 Este 16 Este 0 -- -- 67
2021-02-27 20:00:00 9.2 2 Este 12 Sudeste 0 -- -- 64
2021-02-27 19:00:00 11.4 6 Sudeste 22 Sudeste 0 -- -- 54
2021-02-27 18:00:00 14.7 11 Sudeste 23 Sudeste 0 -- -- 45
2021-02-27 17:00:00 15.9 10 Sudeste 21 Este 0 -- -- 51
2021-02-27 16:00:00 15.9 11 Sudeste 24 Sudeste 0 -- -- 52
2021-02-27 15:00:00 15.9 13 Sudeste 26 Sudeste 0 -- -- 49
2021-02-27 14:00:00 14.9 11 Sudeste 21 Sudeste 0 -- -- 58
2021-02-27 13:00:00 14.1 11 Sudeste 23 Sudeste 0 -- -- 62
2021-02-27 12:00:00 12.5 9 Sudeste 23 Sudeste 0 -- -- 69
2021-02-27 11:00:00 11.1 10 Sudeste 18 Sudeste 0 -- -- 74
2021-02-27 10:00:00 6.1 5 Nordeste 10 Nordeste 0 -- -- 100
2021-02-27 09:00:00 2.2 0 Calma 5 Este 0 -- -- 100
2021-02-27 08:00:00 -0.1 0 Calma 2 Este 0 -- -- 100
2021-02-27 07:00:00 0.6 0 Calma 13 Norte 0 -- -- 99
2021-02-27 06:00:00 2.1 5 Nordeste 12 Nordeste 0 -- -- 99
2021-02-27 05:00:00 1.9 2 Norte 6 Nordeste 0 -- -- 99
2021-02-27 04:00:00 1.3 0 Calma 3 Sudoeste 0 -- -- 98
2021-02-27 03:00:00 1.5 0 Calma 4 Este 0 -- -- 97
2021-02-27 02:00:00 3.3 0 Calma 6 Nordeste 0 -- -- 97
2021-02-27 01:00:00 3.3 3 Este 8 Sudeste 0 -- -- 96
2021-02-27 00:00:00 3.3 0 Calma 8 Este 0 -- -- 92
2021-02-26 23:00:00 4.7 0 Calma 10 Nordeste 0 -- -- 91
2021-02-26 22:00:00 5.8 2 Nordeste 10 Nordeste 0 -- -- 89
2021-02-26 21:00:00 7.2 3 Nordeste 8 Este 0 -- -- 86
2021-02-26 20:00:00 8 5 Sudeste 9 Sudeste 0 -- -- 83
2021-02-26 19:00:00 9.7 5 Sudeste 11 Sudeste 0 -- -- 77
2021-02-26 18:00:00 11.9 8 Sudeste 18 Sudeste 0 -- -- 70
2021-02-26 17:00:00 13 10 Sudeste 21 Sudeste 0 -- -- 66
2021-02-26 16:00:00 13.8 12 Sudeste 23 Sudeste 0 -- -- 64
2021-02-26 15:00:00 14.2 13 Sudeste 26 Este 0 -- -- 62
2021-02-26 14:00:00 13.8 13 Sudeste 26 Sudeste 0 -- -- 66
2021-02-26 13:00:00 13 10 Sudeste 30 Este 0 -- -- 71
2021-02-26 12:00:00 11.5 13 Sudeste 24 Sudeste 0 -- -- 75
2021-02-26 11:00:00 9.8 10 Sudeste 23 Este 0 -- -- 83
2021-02-26 10:00:00 7.7 12 Este 27 Este 0 -- -- 90
2021-02-26 09:00:00 6.7 8 Este 27 Sudeste 0 -- -- 93
2021-02-26 08:00:00 6.6 8 Este 23 Este 0 -- -- 93
2021-02-26 07:00:00 6.7 6 Este 18 Nordeste 0 -- -- 93
2021-02-26 06:00:00 6.8 7 Este 19 Sudeste 0 -- -- 93
2021-02-26 05:00:00 7.1 5 Este 19 Este 0 -- -- 94
2021-02-26 04:00:00 7.1 6 Sudeste 18 Sudeste 0 -- -- 94
2021-02-26 03:00:00 7.2 8 Sudeste 26 Sudeste 0 -- -- 93
2021-02-26 02:00:00 7.3 8 Este 24 Este 0 -- -- 95
2021-02-26 01:00:00 7.4 10 Este 26 Este 0 -- -- 95
2021-02-26 00:00:00 7.9 10 Este 23 Este 0 -- -- 93
2021-02-25 23:00:00 8.1 12 Este 27 Este 0 -- -- 94
2021-02-25 22:00:00 8 9 Este 24 Sudeste 0 -- -- 93
2021-02-25 21:00:00 8.4 6 Este 16 Este 0 -- -- 90
2021-02-25 20:00:00 9.4 4 Este 14 Este 0 -- -- 86
2021-02-25 19:00:00 10.8 3 Este 15 Este 0 -- -- 79
2021-02-25 18:00:00 12.7 6 Este 21 Este 0 -- -- 71
2021-02-25 17:00:00 14.2 10 Este 23 Este 0 -- -- 66
2021-02-25 16:00:00 13.6 13 Este 30 Sudeste 0 -- -- 70
2021-02-25 15:00:00 12.8 12 Sudeste 24 Sudeste 0 -- -- 74
2021-02-25 14:00:00 11.5 10 Sudeste 25 Sudeste 0 -- -- 79
2021-02-25 13:00:00 10.1 12 Sudeste 27 Este 0 -- -- 84
2021-02-25 12:00:00 8.6 11 Este 28 Este 0 -- -- 89
2021-02-25 11:00:00 7.7 7 Este 22 Sudeste 0 -- -- 91
2021-02-25 10:00:00 7 8 Este 21 Este 0 -- -- 94
2021-02-25 09:00:00 6.2 8 Este 23 Este 0 -- -- 96
2021-02-25 08:00:00 5.9 9 Sudeste 20 Este 0 -- -- 96
2021-02-25 07:00:00 6 9 Sudeste 18 Este 0 -- -- 96
2021-02-25 06:00:00 6.1 6 Este 14 Este 0 -- -- 94
2021-02-25 05:00:00 6.3 5 Este 15 Sudeste 0 -- -- 94
2021-02-25 04:00:00 6.7 6 Este 18 Sudeste 0 -- -- 94
2021-02-25 03:00:00 6.7 9 Sudeste 27 Sudeste 0 -- -- 94
2021-02-25 02:00:00 6.8 9 Este 23 Este 0 -- -- 95
2021-02-25 01:00:00 6.9 10 Sudeste 27 Sudeste 0 -- -- 95
2021-02-25 00:00:00 7.3 8 Sudeste 19 Sudeste 0 -- -- 95
2021-02-24 23:00:00 7.2 8 Este 19 Este 0 -- -- 94
2021-02-24 22:00:00 6.8 5 Este 18 Este 0 -- -- 91
2021-02-24 21:00:00 7.1 4 Este 14 Nordeste 0 -- -- 86
2021-02-24 20:00:00 8 6 Este 13 Este 0 -- -- 82
2021-02-24 19:00:00 9.7 4 Este 22 Sudeste 0 -- -- 78
2021-02-24 18:00:00 11.8 15 Este 26 Este 0 -- -- 72
2021-02-24 17:00:00 13 11 Este 23 Este 0 -- -- 70
2021-02-24 16:00:00 13.1 10 Este 27 Este 0 -- -- 73
2021-02-24 15:00:00 12.5 12 Este 29 Sudeste 0 -- -- 80
2021-02-24 14:00:00 10.7 12 Este 27 Sudeste 0 -- -- 85
2021-02-24 13:00:00 10.2 13 Sudeste 25 Este 0 -- -- 88
2021-02-24 12:00:00 9.8 12 Sudeste 26 Sudeste 0 -- -- 90
2021-02-24 11:00:00 9.2 13 Sudeste 23 Este 0 -- -- 93
2021-02-24 10:00:00 7.7 8 Este 15 Este 0 -- -- 96
2021-02-24 09:00:00 7.1 3 Este 11 Este 0 -- -- 97
2021-02-24 08:00:00 6.6 5 Este 12 Este 0 -- -- 97
2021-02-24 07:00:00 6.2 4 Este 18 Este 0 -- -- 97
2021-02-24 06:00:00 5.1 4 Este 11 Nordeste 0 -- -- 98
2021-02-24 05:00:00 4.4 0 Calma 12 Este 0 -- -- 96
2021-02-24 04:00:00 4.6 3 Este 12 Nordeste 0 -- -- 98
2021-02-24 03:00:00 5 4 Este 10 Este 0 -- -- 97
2021-02-24 02:00:00 4.9 4 Este 12 Este 0 -- -- 96
2021-02-24 01:00:00 5.1 4 Este 13 Este 0 -- -- 94
2021-02-24 00:00:00 5.7 4 Este 23 Este 0 -- -- 93
2021-02-23 23:00:00 6 5 Este 15 Este 0 -- -- 91
2021-02-23 22:00:00 6.2 4 Este 13 Nordeste 0 -- -- 89
2021-02-23 21:00:00 6.2 5 Este 10 Este 0 -- -- 85
2021-02-23 20:00:00 7.3 4 Este 9 Este 0 -- -- 80
2021-02-23 19:00:00 9.7 0 Calma 13 Sudeste 0 -- -- 72
2021-02-23 18:00:00 11.4 8 Sudeste 18 Sudeste 0 -- -- 66
2021-02-23 17:00:00 11.6 9 Sudeste 18 Sudeste 0 -- -- 68
2021-02-23 16:00:00 10.7 11 Sudeste 18 Sudeste 0 -- -- 69
2021-02-23 15:00:00 9.8 9 Sudeste 17 Este 0 -- -- 74
2021-02-23 14:00:00 10.4 5 Este 17 Este 0 -- -- 73
2021-02-23 13:00:00 9.3 9 Sudeste 22 Este 0 -- -- 76
2021-02-23 12:00:00 10.2 13 Sudeste 25 Sudeste 0 -- -- 72
2021-02-23 11:00:00 9.6 12 Sudeste 21 Este 0 -- -- 79
2021-02-23 10:00:00 6 4 Nordeste 9 Nordeste 0 -- -- 89
2021-02-23 09:00:00 2.8 5 Nordeste 9 Nordeste 0 -- -- 96
2021-02-23 08:00:00 2.3 4 Nordeste 9 Nordeste 0 -- -- 94
2021-02-23 07:00:00 2.9 2 Nordeste 5 Nordeste 0 -- -- 94
2021-02-23 06:00:00 4.5 3 Norte 7 Nordeste 0 -- -- 92
2021-02-23 05:00:00 5.1 4 Nordeste 8 Nordeste 0 -- -- 93
2021-02-23 04:00:00 4.9 4 Nordeste 7 Nordeste 0 -- -- 95
2021-02-23 03:00:00 4.3 0 Calma 4 Nordeste 0 -- -- 96
2021-02-23 02:00:00 3.9 0 Calma 4 Nordeste 0 -- -- 95
2021-02-23 01:00:00 3.5 0 Calma 5 Norte 0 -- -- 95
2021-02-23 00:00:00 4 2 Noroeste 4 Noroeste 0 -- -- 93
2021-02-22 23:00:00 4.9 2 Nordeste 5 Noroeste 0 -- -- 91
2021-02-22 22:00:00 5.1 0 Calma 6 Oeste 0 -- -- 91
2021-02-22 21:00:00 5.4 4 Noroeste 10 Oeste 0 -- -- 90
2021-02-22 20:00:00 5.7 8 Noroeste 24 Noroeste 0 -- -- 89
2021-02-22 19:00:00 6.2 9 Oeste 26 Oeste 0 -- -- 87
2021-02-22 18:00:00 6.6 8 Noroeste 23 Oeste 0 -- -- 86
2021-02-22 17:00:00 6.6 11 Noroeste 26 Noroeste 0 -- -- 88
2021-02-22 16:00:00 6.5 12 Oeste 23 Noroeste 0 -- -- 85
2021-02-22 15:00:00 6.2 12 Oeste 26 Oeste 0 -- -- 86
2021-02-22 14:00:00 5.8 13 Oeste 24 Oeste 0 -- -- 88
2021-02-22 13:00:00 5.8 15 Oeste 30 Oeste 0 -- -- 88
2021-02-22 12:00:00 4.8 13 Oeste 27 Oeste 0 -- -- 91
2021-02-22 11:00:00 4.6 15 Oeste 29 Oeste 0 -- -- 94
2021-02-22 10:00:00 4.5 15 Oeste 29 Oeste 0.2 -- -- 97
2021-02-22 09:00:00 4.3 12 Oeste 24 Oeste 0.6 -- -- 96
2021-02-22 08:00:00 4.5 11 Oeste 29 Oeste 0.4 -- -- 95
2021-02-22 07:00:00 4.5 17 Oeste 33 Noroeste 0 -- -- 93
2021-02-22 06:00:00 4.6 16 Oeste 30 Oeste 0 -- -- 95
2021-02-22 05:00:00 4.4 11 Oeste 26 Oeste 0 -- -- 96
2021-02-22 04:00:00 4.4 13 Oeste 29 Oeste 0 -- -- 94
2021-02-22 03:00:00 4.6 12 Oeste 27 Oeste 0 -- -- 95
2021-02-22 02:00:00 5.1 15 Oeste 38 Oeste 0.2 -- -- 97
2021-02-22 01:00:00 5.7 10 Sudoeste 27 Sudoeste 1.8 -- -- 97
2021-02-22 00:00:00 6.1 14 Sudoeste 26 Sudoeste 3.2 -- -- 96
2021-02-21 23:00:00 6 20 Sudoeste 45 Sudoeste 6.6 -- -- 96
2021-02-21 22:00:00 8.6 12 Este 26 Este 0 -- -- 94
2021-02-21 21:00:00 8.7 12 Este 29 Este 0 -- -- 92
2021-02-21 20:00:00 9.1 10 Este 24 Sudeste 0 -- -- 89
2021-02-21 19:00:00 9.3 10 Este 21 Sudeste 0 -- -- 87
2021-02-21 18:00:00 9.7 10 Este 22 Este 0 -- -- 86
2021-02-21 17:00:00 9.5 10 Sudeste 20 Este 0 -- -- 85
2021-02-21 16:00:00 9.6 6 Este 22 Sudeste 0 -- -- 83
2021-02-21 15:00:00 9.7 8 Este 28 Este 0 -- -- 81
2021-02-21 14:00:00 10.2 15 Sudeste 36 Este 0 -- -- 79
2021-02-21 13:00:00 9.4 15 Sudeste 33 Este 0 -- -- 82
2021-02-21 12:00:00 9.2 12 Este 34 Este 0 -- -- 84
2021-02-21 11:00:00 8.1 13 Este 37 Nordeste 0 -- -- 89
2021-02-21 10:00:00 7 8 Este 32 Este 0 -- -- 90
2021-02-21 09:00:00 6.6 12 Este 31 Sudeste 0 -- -- 90
2021-02-21 08:00:00 6.5 14 Este 34 Este 0 -- -- 91
2021-02-21 07:00:00 6.6 8 Sudeste 24 Este 0 -- -- 90
2021-02-21 06:00:00 6.6 6 Este 24 Nordeste 0 -- -- 90
2021-02-21 05:00:00 6.6 8 Este 29 Nordeste 0 -- -- 91
2021-02-21 04:00:00 6.8 10 Este 35 Este 0 -- -- 90
2021-02-21 03:00:00 6.9 12 Este 37 Este 0 -- -- 91
2021-02-21 02:00:00 6.7 17 Este 43 Este 0 -- -- 92
2021-02-21 01:00:00 6.3 11 Este 40 Este 0 -- -- 92
2021-02-21 00:00:00 6.4 12 Este 37 Este 0 -- -- 92
2021-02-20 23:00:00 6.5 13 Este 28 Este 0 -- -- 91
2021-02-20 22:00:00 6.6 6 Este 24 Este 0 -- -- 89
2021-02-20 21:00:00 7.7 9 Este 26 Este 0 -- -- 83
2021-02-20 20:00:00 9.4 11 Este 27 Este 0 -- -- 74
2021-02-20 19:00:00 11.3 13 Este 28 Este 0 -- -- 65
2021-02-20 18:00:00 15.2 11 Este 30 Sudeste 0 -- -- 52
2021-02-20 17:00:00 17.7 14 Este 32 Sudeste 0 -- -- 45
2021-02-20 16:00:00 17.5 14 Sudeste 29 Sudeste 0 -- -- 37
2021-02-20 15:00:00 17.7 15 Sudeste 28 Sudeste 0 -- -- 39
2021-02-20 14:00:00 17.8 16 Sudeste 27 Sudeste 0 -- -- 35
2021-02-20 13:00:00 15.8 17 Sudeste 30 Sudeste 0 -- -- 37
2021-02-20 12:00:00 14.5 15 Sudeste 30 Sudeste 0 -- -- 38
2021-02-20 11:00:00 13.3 10 Sudeste 22 Sudeste 0 -- -- 41
2021-02-20 10:00:00 9 4 Este 12 Este 0 -- -- 61
2021-02-20 09:00:00 6.1 4 Nordeste 10 Nordeste 0 -- -- 69
2021-02-20 08:00:00 3.9 2 Nordeste 8 Nordeste 0 -- -- 76
2021-02-20 07:00:00 3.9 3 Norte 8 Nordeste 0 -- -- 77
2021-02-20 06:00:00 4.2 3 Norte 9 Norte 0 -- -- 77
2021-02-20 05:00:00 4.5 4 Nordeste 10 Nordeste 0 -- -- 79
2021-02-20 04:00:00 3.6 5 Nordeste 10 Este 0 -- -- 82
2021-02-20 03:00:00 4.5 3 Nordeste 6 Nordeste 0 -- -- 78
2021-02-20 02:00:00 4.5 4 Nordeste 8 Nordeste 0 -- -- 79
2021-02-20 01:00:00 5.1 3 Nordeste 6 Nordeste 0 -- -- 76
2021-02-20 00:00:00 6.9 3 Nordeste 8 Nordeste 0 -- -- 70
2021-02-19 23:00:00 7.2 5 Nordeste 8 Nordeste 0 -- -- 66
2021-02-19 22:00:00 7.6 4 Nordeste 8 Norte 0 -- -- 59
2021-02-19 21:00:00 8.2 0 Calma 9 Nordeste 0 -- -- 58
2021-02-19 20:00:00 10.5 0 Calma 5 Norte 0 -- -- 51
2021-02-19 19:00:00 14.4 0 Calma 10 Sudoeste 0 -- -- 37
2021-02-19 18:00:00 18.3 8 Sudoeste 22 Sudoeste 0 -- -- 28
2021-02-19 17:00:00 19.1 14 Sudoeste 28 Sudoeste 0 -- -- 26
2021-02-19 16:00:00 19.1 12 Sudoeste 24 Sudoeste 0 -- -- 27
2021-02-19 15:00:00 18.4 12 Sudoeste 21 Sur 0 -- -- 30
2021-02-19 14:00:00 17 10 Sur 19 Sur 0 -- -- 38
2021-02-19 13:00:00 15.8 9 Sur 17 Sur 0 -- -- 44
2021-02-19 12:00:00 14.1 8 Sur 14 Sur 0 -- -- 48
2021-02-19 11:00:00 12 0 Calma 10 Sur 0 -- -- 56
2021-02-19 10:00:00 7.2 4 Nordeste 8 Nordeste 0 -- -- 73
2021-02-19 09:00:00 2.8 3 Nordeste 8 Norte 0 -- -- 82
2021-02-19 08:00:00 1.5 4 Nordeste 8 Nordeste 0 -- -- 84
2021-02-19 07:00:00 1.4 5 Nordeste 8 Nordeste 0 -- -- 85
2021-02-19 06:00:00 1 3 Nordeste 7 Nordeste 0 -- -- 87
2021-02-19 05:00:00 1.7 4 Nordeste 8 Nordeste 0 -- -- 85
2021-02-19 04:00:00 1 0 Calma 12 Sur 0 -- -- 86
2021-02-19 03:00:00 2.6 0 Calma 6 Nordeste 0 -- -- 79
2021-02-19 02:00:00 3.2 3 Este 7 Nordeste 0 -- -- 77
2021-02-19 01:00:00 3.9 4 Nordeste 10 Este 0 -- -- 75
2021-02-19 00:00:00 4.2 3 Nordeste 7 Nordeste 0 -- -- 73
2021-02-18 23:00:00 5.2 4 Nordeste 9 Nordeste 0 -- -- 71
2021-02-18 22:00:00 6.2 4 Nordeste 6 Nordeste 0 -- -- 67
2021-02-18 21:00:00 7.6 2 Nordeste 4 Nordeste 0 -- -- 62
2021-02-18 20:00:00 10.3 0 Calma 6 Noroeste 0 -- -- 52
2021-02-18 19:00:00 13.7 4 Oeste 15 Oeste 0 -- -- 40
2021-02-18 18:00:00 16.6 9 Oeste 22 Oeste 0 -- -- 30
2021-02-18 17:00:00 17.4 13 Oeste 26 Oeste 0 -- -- 32
2021-02-18 16:00:00 17.4 17 Oeste 27 Oeste 0 -- -- 28
2021-02-18 15:00:00 17.2 14 Oeste 28 Oeste 0 -- -- 36
2021-02-18 14:00:00 17.1 13 Oeste 26 Oeste 0 -- -- 37
2021-02-18 13:00:00 16.7 10 Oeste 16 Sudoeste 0 -- -- 42
2021-02-18 12:00:00 14.5 5 Sudoeste 10 Sudoeste 0 -- -- 51
2021-02-18 11:00:00 12.9 3 Sur 6 Este 0 -- -- 54
2021-02-18 10:00:00 7.5 4 Nordeste 7 Nordeste 0 -- -- 74
2021-02-18 09:00:00 3.3 4 Nordeste 9 Norte 0 -- -- 82
2021-02-18 08:00:00 2.1 4 Nordeste 9 Nordeste 0 -- -- 83
2021-02-18 07:00:00 2.2 3 Nordeste 11 Nordeste 0 -- -- 81
2021-02-18 06:00:00 2.9 4 Nordeste 10 Nordeste 0 -- -- 80
2021-02-18 05:00:00 2.9 5 Nordeste 8 Norte 0 -- -- 80
2021-02-18 04:00:00 3.1 3 Nordeste 8 Norte 0 -- -- 79
2021-02-18 03:00:00 3.2 3 Nordeste 8 Nordeste 0 -- -- 78
2021-02-18 02:00:00 3.5 4 Nordeste 6 Nordeste 0 -- -- 78
2021-02-18 01:00:00 4.1 3 Nordeste 6 Nordeste 0 -- -- 74
2021-02-18 00:00:00 4.8 4 Nordeste 9 Norte 0 -- -- 72
2021-02-17 23:00:00 6.8 5 Norte 15 Sudeste 0 -- -- 64
2021-02-17 22:00:00 6.6 5 Nordeste 8 Nordeste 0 -- -- 65
2021-02-17 21:00:00 7.8 4 Nordeste 6 Nordeste 0 -- -- 64
2021-02-17 20:00:00 10.1 0 Calma 4 Nordeste 0 -- -- 55
2021-02-17 19:00:00 14.3 3 Noroeste 9 Oeste 0 -- -- 41
2021-02-17 18:00:00 18.1 7 Oeste 18 Oeste 0 -- -- 30
2021-02-17 17:00:00 19.3 10 Oeste 23 Oeste 0 -- -- 27
2021-02-17 16:00:00 19.9 14 Sudoeste 22 Oeste 0 -- -- 25
2021-02-17 15:00:00 19.3 11 Oeste 19 Oeste 0 -- -- 30
2021-02-17 14:00:00 17.9 10 Sudoeste 15 Sudoeste 0 -- -- 37
2021-02-17 13:00:00 16.4 6 Sudoeste 12 Sudoeste 0 -- -- 47
2021-02-17 12:00:00 14.6 4 Sudoeste 9 Sudoeste 0 -- -- 56
2021-02-17 11:00:00 11.1 0 Calma 5 Norte 0 -- -- 67
2021-02-17 10:00:00 5.9 4 Nordeste 8 Nordeste 0 -- -- 87
2021-02-17 09:00:00 2.5 5 Nordeste 8 Norte 0 -- -- 92
2021-02-17 08:00:00 1.7 3 Nordeste 8 Nordeste 0 -- -- 91
2021-02-17 07:00:00 2.2 2 Nordeste 8 Norte 0 -- -- 90
2021-02-17 06:00:00 2.2 3 Nordeste 7 Norte 0 -- -- 91
2021-02-17 05:00:00 2.2 3 Nordeste 6 Nordeste 0 -- -- 90
2021-02-17 04:00:00 2.2 3 Nordeste 8 Nordeste 0 -- -- 89
2021-02-17 03:00:00 2.7 3 Nordeste 6 Norte 0 -- -- 89
2021-02-17 02:00:00 2.9 3 Nordeste 6 Nordeste 0 -- -- 88
2021-02-17 01:00:00 3.3 3 Nordeste 6 Nordeste 0 -- -- 88
2021-02-17 00:00:00 3.7 2 Nordeste 5 Nordeste 0 -- -- 88
2021-02-16 23:00:00 4.8 2 Nordeste 8 Nordeste 0 -- -- 85
2021-02-16 22:00:00 5.7 5 Nordeste 9 Nordeste 0 -- -- 82
2021-02-16 21:00:00 7.2 0 Calma 5 Nordeste 0 -- -- 79
2021-02-16 20:00:00 9.2 0 Calma 7 Oeste 0 -- -- 72
2021-02-16 19:00:00 12.5 4 Oeste 10 Oeste 0 -- -- 61
2021-02-16 18:00:00 15.4 6 Oeste 14 Noroeste 0 -- -- 52
2021-02-16 17:00:00 16 8 Oeste 20 Oeste 0 -- -- 48
2021-02-16 16:00:00 15.8 12 Oeste 24 Noroeste 0 -- -- 45
2021-02-16 15:00:00 15.7 12 Oeste 22 Noroeste 0 -- -- 46
2021-02-16 14:00:00 14.5 11 Oeste 18 Noroeste 0 -- -- 52
2021-02-16 13:00:00 12.8 8 Sudoeste 14 Oeste 0 -- -- 62
2021-02-16 12:00:00 10.3 5 Sudoeste 11 Oeste 0 -- -- 74
2021-02-16 11:00:00 7.6 0 Calma 8 Norte 0 -- -- 85
2021-02-16 10:00:00 3.8 6 Nordeste 10 Nordeste 0 -- -- 96
2021-02-16 09:00:00 0.9 6 Nordeste 10 Norte 0 -- -- 98
2021-02-16 08:00:00 -0.4 4 Nordeste 8 Nordeste 0 -- -- 96
2021-02-16 07:00:00 -0.2 3 Nordeste 8 Nordeste 0 -- -- 97
2021-02-16 06:00:00 0.5 4 Nordeste 9 Nordeste 0 -- -- 96
2021-02-16 05:00:00 1.4 5 Nordeste 9 Nordeste 0 -- -- 96
2021-02-16 04:00:00 2 4 Nordeste 10 Nordeste 0 -- -- 96
2021-02-16 03:00:00 2.5 3 Nordeste 6 Nordeste 0 -- -- 96
2021-02-16 02:00:00 2.9 5 Nordeste 9 Nordeste 0 -- -- 95
2021-02-16 01:00:00 3.4 4 Nordeste 8 Este 0 -- -- 94
2021-02-16 00:00:00 3.6 4 Este 7 Este 0 -- -- 93
2021-02-15 23:00:00 4.3 0 Calma 6 Este 0 -- -- 91
2021-02-15 22:00:00 5.1 0 Calma 10 Sudeste 0 -- -- 90
2021-02-15 21:00:00 6 4 Este 14 Sudeste 0 -- -- 87
2021-02-15 20:00:00 7 6 Este 13 Sudeste 0 -- -- 81
2021-02-15 19:00:00 8.8 8 Este 16 Este 0 -- -- 75
2021-02-15 18:00:00 11.2 11 Este 24 Este 0 -- -- 68
2021-02-15 17:00:00 11.8 13 Este 25 Este 0 -- -- 66
2021-02-15 16:00:00 11.9 13 Sudeste 25 Este 0 -- -- 67
2021-02-15 15:00:00 10.2 14 Sudeste 27 Sudeste 0 -- -- 72
2021-02-15 14:00:00 10 13 Sudeste 25 Sudeste 0 -- -- 73
2021-02-15 13:00:00 9.8 12 Sudeste 25 Sudeste 0 -- -- 75
2021-02-15 12:00:00 9.4 13 Sudeste 23 Sudeste 0 -- -- 78
2021-02-15 11:00:00 8.9 11 Sudeste 22 Este 0 -- -- 86
2021-02-15 10:00:00 7.9 5 Este 18 Este 0 -- -- 92
2021-02-15 09:00:00 6.6 5 Este 13 Sudeste 0 -- -- 96
2021-02-15 08:00:00 6.6 7 Sudeste 15 Sudeste 0 -- -- 96
2021-02-15 07:00:00 6.5 4 Este 15 Este 0 -- -- 96
2021-02-15 06:00:00 6.6 5 Este 16 Sudeste 0 -- -- 95
2021-02-15 05:00:00 6.6 5 Este 19 Sudeste 0 -- -- 94
2021-02-15 04:00:00 6.5 6 Este 19 Este 0 -- -- 93
2021-02-15 03:00:00 6.7 3 Este 17 Este 0 -- -- 92
2021-02-15 02:00:00 6.6 4 Este 20 Este 0 -- -- 93
2021-02-15 01:00:00 6.5 8 Este 23 Este 0 -- -- 93
2021-02-15 00:00:00 6.9 10 Este 23 Sudeste 0 -- -- 92
2021-02-14 23:00:00 7.2 9 Este 27 Este 0 -- -- 91
2021-02-14 22:00:00 7.3 10 Este 33 Este 0 -- -- 90
2021-02-14 21:00:00 7.3 13 Este 29 Este 0 -- -- 88
2021-02-14 20:00:00 7.9 10 Este 24 Este 0 -- -- 82
2021-02-14 19:00:00 9.5 12 Este 28 Este 0 -- -- 73
2021-02-14 18:00:00 12.1 13 Este 27 Este 0 -- -- 64
2021-02-14 17:00:00 14 13 Este 24 Sudeste 0 -- -- 61
2021-02-14 16:00:00 14.4 14 Sudeste 28 Sudeste 0 -- -- 56
2021-02-14 15:00:00 14.2 12 Sudeste 28 Sudeste 0 -- -- 55
2021-02-14 14:00:00 13.4 13 Sudeste 27 Este 0 -- -- 57
2021-02-14 13:00:00 13.2 15 Sudeste 30 Sudeste 0 -- -- 56
2021-02-14 12:00:00 12 14 Este 28 Este 0 -- -- 61
2021-02-14 11:00:00 10.4 12 Este 26 Este 0 -- -- 69
2021-02-14 10:00:00 7.1 5 Nordeste 10 Nordeste 0 -- -- 81
2021-02-14 09:00:00 3.2 0 Calma 8 Nordeste 0 -- -- 92
2021-02-14 08:00:00 -- -- -- -- -- -- -- -- --
2021-02-14 07:00:00 -- -- -- -- -- -- -- -- --
2021-02-14 06:00:00 -- -- -- -- -- -- -- -- --
2021-02-14 05:00:00 -- -- -- -- -- -- -- -- --
2021-02-14 04:00:00 2.8 2 Norte 9 Norte 0 -- -- 86
2021-02-14 03:00:00 3.4 4 Norte 12 Nordeste 0 -- -- 91
2021-02-14 02:00:00 2.7 4 Norte 12 Nordeste 0 -- -- 93
2021-02-14 01:00:00 3.5 3 Norte 7 Norte 0 -- -- 90
2021-02-14 00:00:00 4.4 2 Norte 8 Nordeste 0 -- -- 85
2021-02-13 23:00:00 5.5 5 Noroeste 8 Noroeste 0 -- -- 83
2021-02-13 22:00:00 6.2 0 Calma 10 Norte 0 -- -- 77
2021-02-13 21:00:00 8.6 5 Nordeste 16 Noroeste 0 -- -- 69
2021-02-13 20:00:00 8.4 0 Calma 10 Oeste 0 -- -- 69
2021-02-13 19:00:00 10.4 6 Oeste 20 Noroeste 0 -- -- 61
2021-02-13 18:00:00 12.8 13 Noroeste 33 Noroeste 0 -- -- 55
2021-02-13 17:00:00 13.2 20 Noroeste 35 Oeste 0 -- -- 46
2021-02-13 16:00:00 13.4 18 Noroeste 34 Noroeste 0 -- -- 56
2021-02-13 15:00:00 11.8 17 Noroeste 34 Noroeste 0 -- -- 63
2021-02-13 14:00:00 11.9 15 Oeste 27 Noroeste 0 -- -- 67
2021-02-13 13:00:00 11.3 17 Oeste 27 Oeste 0 -- -- 69
2021-02-13 08:00:00 1 0 Calma 8 Oeste 0 -- -- 97
2021-02-13 07:00:00 1.7 0 Calma 8 Noroeste 0 -- -- 96
2021-02-13 06:00:00 1.9 0 Calma 8 Oeste 0 -- -- 96
2021-02-13 05:00:00 1.8 3 Sudoeste 6 Oeste 0 -- -- 94
2021-02-13 04:00:00 3.5 0 Calma 10 Oeste 0 -- -- 93
2021-02-13 03:00:00 4.3 7 Oeste 14 Noroeste 0 -- -- 92
2021-02-13 02:00:00 4.4 4 Oeste 10 Oeste 0 -- -- 89
2021-02-13 01:00:00 5.3 6 Oeste 15 Oeste 0 -- -- 88
2021-02-13 00:00:00 5.9 5 Oeste 12 Oeste 0 -- -- 87
2021-02-12 23:00:00 7.2 5 Noroeste 24 Noroeste 0 -- -- 80
2021-02-12 22:00:00 7.8 13 Noroeste 24 Noroeste 0 -- -- 79
2021-02-12 21:00:00 8.8 14 Noroeste 30 Oeste 0 -- -- 75
2021-02-12 20:00:00 9.2 11 Oeste 32 Noroeste 0 -- -- 75
2021-02-12 19:00:00 10.2 18 Noroeste 41 Noroeste 0 -- -- 72
2021-02-12 18:00:00 11.5 20 Noroeste 40 Oeste 0 -- -- 69
2021-02-12 17:00:00 11.9 23 Noroeste 49 Oeste 0 -- -- 65
2021-02-12 16:00:00 12.5 24 Noroeste 48 Noroeste 0 -- -- 60
2021-02-12 15:00:00 12.3 23 Oeste 48 Oeste 0 -- -- 63
2021-02-12 14:00:00 12.4 25 Oeste 48 Noroeste 0 -- -- 69
2021-02-12 13:00:00 11.7 26 Oeste 49 Noroeste 0 -- -- 72
2021-02-12 12:00:00 10.9 24 Oeste 46 Noroeste 0.2 -- -- 81
2021-02-12 11:00:00 9 12 Oeste 30 Noroeste 0.4 -- -- 93
2021-02-12 10:00:00 8.3 15 Oeste 41 Oeste 1.4 -- -- 92
2021-02-12 09:00:00 9.6 18 Sudoeste 29 Oeste 0.4 -- -- 98
2021-02-12 08:00:00 9.8 14 Oeste 34 Oeste 0 -- -- 95
2021-02-12 07:00:00 9.9 18 Oeste 34 Oeste 0 -- -- 96
2021-02-12 06:00:00 10.1 10 Sudoeste 18 Oeste 0 -- -- 98
2021-02-12 05:00:00 9.8 6 Sudoeste 12 Oeste 0 -- -- 99
2021-02-12 04:00:00 9.6 6 Oeste 11 Oeste 0 -- -- 99
2021-02-12 03:00:00 9 4 Sudoeste 8 Sudoeste 0 -- -- 99
2021-02-12 02:00:00 8.5 0 Calma 4 Nordeste 0 -- -- 98
2021-02-12 01:00:00 8.3 0 Calma 4 Nordeste 0 -- -- 98
2021-02-12 00:00:00 8.4 2 Norte 4 Norte 0 -- -- 97
2021-02-11 23:00:00 8.3 0 Calma 4 Nordeste 0 -- -- 97
2021-02-11 22:00:00 8.7 4 Oeste 5 Oeste 0 -- -- 95
2021-02-11 21:00:00 10 3 Noroeste 5 Oeste 0 -- -- 94
2021-02-11 20:00:00 10.6 0 Calma 4 Noroeste 0 -- -- 91
2021-02-11 19:00:00 11.5 3 Noroeste 14 Noroeste 0 -- -- 88
2021-02-11 18:00:00 12 6 Oeste 18 Noroeste 0 -- -- 87
2021-02-11 17:00:00 12.3 9 Oeste 23 Noroeste 0 -- -- 84
2021-02-11 16:00:00 12.2 13 Oeste 24 Oeste 0 -- -- 83
2021-02-11 15:00:00 12.3 15 Oeste 24 Noroeste 0 -- -- 80
2021-02-11 14:00:00 11.4 13 Oeste 30 Oeste 0 -- -- 90
2021-02-11 13:00:00 11.7 17 Oeste 30 Oeste 0 -- -- 86
2021-02-11 12:00:00 10.5 12 Oeste 27 Oeste 0 -- -- 94
2021-02-11 11:00:00 9.9 12 Oeste 27 Oeste 0 -- -- 96
2021-02-11 10:00:00 7 7 Oeste 18 Noroeste 0 -- -- 100
2021-02-11 09:00:00 4.2 3 Sudoeste 10 Sudoeste 0 -- -- 99
2021-02-11 08:00:00 2.7 3 Sudoeste 9 Sudoeste 0 -- -- 99
2021-02-11 07:00:00 2.1 6 Sudoeste 11 Sudoeste 0 -- -- 99
2021-02-11 06:00:00 1.6 0 Calma 9 Nordeste 0 -- -- 97
2021-02-11 05:00:00 1.4 4 Nordeste 6 Nordeste 0 -- -- 97
2021-02-11 04:00:00 1.6 0 Calma 3 Nordeste 0 -- -- 96
2021-02-11 03:00:00 1.4 0 Calma 4 Nordeste 0 -- -- 96
2021-02-11 02:00:00 1.7 2 Oeste 5 Oeste 0 -- -- 95
2021-02-11 01:00:00 2.2 0 Calma 6 Oeste 0 -- -- 91
2021-02-11 00:00:00 3.1 4 Oeste 6 Noroeste 0 -- -- 92
2021-02-10 23:00:00 3.9 0 Calma 9 Noroeste 0 -- -- 85
2021-02-10 22:00:00 4.3 4 Oeste 9 Oeste 0 -- -- 86
2021-02-10 21:00:00 5.7 3 Nordeste 8 Norte 0 -- -- 79
2021-02-10 20:00:00 7.6 6 Noroeste 15 Noroeste 0 -- -- 73
2021-02-10 19:00:00 9.2 6 Noroeste 25 Noroeste 0 -- -- 65
2021-02-10 18:00:00 11 15 Noroeste 40 Noroeste 0 -- -- 61
2021-02-10 17:00:00 11.4 19 Noroeste 43 Noroeste 0 -- -- 59
2021-02-10 16:00:00 11.5 24 Noroeste 43 Oeste 0 -- -- 58
2021-02-10 15:00:00 11 25 Oeste 44 Oeste 0 -- -- 60
2021-02-10 14:00:00 10.9 23 Oeste 44 Noroeste 0 -- -- 61
2021-02-10 13:00:00 9.9 24 Noroeste 50 Oeste 0 -- -- 69
2021-02-10 12:00:00 8.8 27 Noroeste 49 Oeste 0 -- -- 78
2021-02-10 11:00:00 8.8 25 Oeste 43 Noroeste 0 -- -- 86
2021-02-10 10:00:00 7.4 16 Oeste 38 Oeste 0 -- -- 95
2021-02-10 09:00:00 6.6 22 Oeste 42 Oeste 1 -- -- 96
2021-02-10 08:00:00 6.6 22 Oeste 58 Oeste 0.2 -- -- 94
2021-02-10 07:00:00 6.9 37 Sudoeste 57 Sudoeste 0 -- -- 89
2021-02-10 06:00:00 6.4 27 Sudoeste 49 Oeste 0 -- -- 91
2021-02-10 05:00:00 6.6 35 Sudoeste 59 Oeste 0 -- -- 91
2021-02-10 04:00:00 6.9 35 Sudoeste 51 Sudoeste 0 -- -- 91
2021-02-10 03:00:00 6.7 20 Oeste 32 Oeste 0.2 -- -- 96
2021-02-10 02:00:00 6.5 13 Oeste 30 Oeste 0 -- -- 95
2021-02-10 01:00:00 6.7 15 Oeste 27 Oeste 0 -- -- 96
2021-02-10 00:00:00 6.5 13 Oeste 31 Oeste 0 -- -- 95
2021-02-09 23:00:00 7.1 13 Oeste 27 Oeste 0 -- -- 94
2021-02-09 22:00:00 7.5 14 Oeste 34 Oeste 0 -- -- 95
2021-02-09 21:00:00 7.5 21 Sudoeste 34 Oeste 0.4 -- -- 96
2021-02-09 20:00:00 7 8 Oeste 23 Noroeste 0.2 -- -- 94
2021-02-09 19:00:00 7.3 14 Oeste 37 Noroeste 0.2 -- -- 90
2021-02-09 18:00:00 8.3 19 Oeste 60 Oeste 1.2 -- -- 92
2021-02-09 17:00:00 9.2 31 Sudoeste 53 Sudoeste 0.6 -- -- 92
2021-02-09 16:00:00 9.7 32 Sudoeste 53 Sudoeste 0.2 -- -- 88
2021-02-09 15:00:00 9.5 31 Sudoeste 49 Sudoeste 0 -- -- 86
2021-02-09 14:00:00 9.3 27 Sudoeste 50 Sudoeste 0 -- -- 82
2021-02-09 13:00:00 8.7 19 Sudoeste 43 Sudoeste 0.2 -- -- 88
2021-02-09 12:00:00 8.8 24 Sudoeste 40 Sudoeste 0 -- -- 88
2021-02-09 11:00:00 7.8 23 Oeste 36 Sudoeste 0 -- -- 90
2021-02-09 10:00:00 7.1 19 Oeste 40 Sudoeste 0 -- -- 92
2021-02-09 09:00:00 6 22 Oeste 38 Sudoeste 0 -- -- 97
2021-02-09 08:00:00 5.6 19 Sudoeste 35 Oeste 0 -- -- 96
2021-02-09 07:00:00 5.7 21 Oeste 35 Noroeste 0 -- -- 94
2021-02-09 06:00:00 5.4 11 Oeste 29 Oeste 0 -- -- 94
2021-02-09 05:00:00 5.4 15 Noroeste 39 Oeste 0 -- -- 90
2021-02-09 04:00:00 5.6 22 Oeste 39 Noroeste 0 -- -- 94
2021-02-09 03:00:00 5.2 16 Oeste 40 Oeste 0 -- -- 93
2021-02-09 02:00:00 5.3 17 Oeste 42 Oeste 0 -- -- 93
2021-02-09 01:00:00 5.5 23 Oeste 44 Oeste 0 -- -- 93
2021-02-09 00:00:00 5.6 24 Sudoeste 34 Oeste 0 -- -- 93
2021-02-08 23:00:00 5.6 18 Sudoeste 39 Oeste 0 -- -- 93
2021-02-08 22:00:00 6 24 Oeste 45 Oeste 0 -- -- 91
2021-02-08 21:00:00 6.3 22 Oeste 45 Oeste 0 -- -- 91
2021-02-08 20:00:00 6.7 24 Oeste 39 Sudoeste 0 -- -- 88
2021-02-08 19:00:00 7.1 15 Oeste 39 Oeste 0 -- -- 82
2021-02-08 18:00:00 7.7 20 Oeste 48 Oeste 0 -- -- 87
2021-02-08 17:00:00 8.4 26 Oeste 49 Oeste 0 -- -- 83
2021-02-08 16:00:00 7.6 27 Oeste 44 Oeste 0 -- -- 89
2021-02-08 15:00:00 6.4 13 Oeste 40 Oeste 0.4 -- -- 92
2021-02-08 14:00:00 7.2 30 Sudoeste 44 Sudoeste 0.2 -- -- 87
2021-02-08 13:00:00 6.9 19 Oeste 42 Oeste 1 -- -- 93
2021-02-08 12:00:00 7.1 22 Oeste 43 Oeste 0.2 -- -- 87
2021-02-08 11:00:00 6.9 23 Oeste 45 Oeste 0 -- -- 92
2021-02-08 10:00:00 7.1 24 Oeste 53 Oeste 0 -- -- 94
2021-02-08 09:00:00 7.3 26 Sudoeste 50 Sudoeste 0.2 -- -- 94
2021-02-08 08:00:00 7.1 32 Sudoeste 46 Sudoeste 0.4 -- -- 95
2021-02-08 07:00:00 6.5 17 Sudoeste 36 Sudoeste 0 -- -- 95
2021-02-08 06:00:00 6.2 19 Sudoeste 30 Oeste 0 -- -- 96
2021-02-08 05:00:00 5.4 22 Sudoeste 33 Sudoeste 0.2 -- -- 96
2021-02-08 04:00:00 5 15 Sudoeste 32 Sudoeste 0 -- -- 98
2021-02-08 03:00:00 5 18 Oeste 34 Sudoeste 0 -- -- 98
2021-02-08 02:00:00 4.8 20 Oeste 40 Oeste 0 -- -- 99
2021-02-08 01:00:00 4.6 24 Oeste 40 Oeste 0.2 -- -- 98
2021-02-08 00:00:00 4.5 22 Oeste 41 Oeste 0.2 -- -- 96
2021-02-07 23:00:00 4.7 21 Oeste 42 Oeste 0.2 -- -- 94
2021-02-07 22:00:00 5.4 19 Oeste 39 Oeste 0 -- -- 91
2021-02-07 21:00:00 6 18 Oeste 45 Oeste 0 -- -- 91
2021-02-07 20:00:00 6.6 21 Oeste 39 Oeste 0 -- -- 86
2021-02-07 19:00:00 7.5 15 Oeste 29 Oeste 0 -- -- 85
2021-02-07 18:00:00 7.6 12 Oeste 31 Oeste 0 -- -- 73
2021-02-07 17:00:00 8.3 17 Noroeste 40 Oeste 0 -- -- 69
2021-02-07 16:00:00 8.3 18 Noroeste 34 Noroeste 0 -- -- 73
2021-02-07 15:00:00 7.8 18 Noroeste 37 Noroeste 0 -- -- 72
2021-02-07 14:00:00 8.3 20 Oeste 38 Noroeste 0 -- -- 67
2021-02-07 13:00:00 8 19 Oeste 33 Noroeste 0 -- -- 69
2021-02-07 12:00:00 7.2 19 Noroeste 34 Noroeste 0 -- -- 67
2021-02-07 11:00:00 6.5 13 Norte 29 Norte 0 -- -- 76
2021-02-07 10:00:00 5.3 10 Noroeste 24 Norte 0 -- -- 87
2021-02-07 09:00:00 4 11 Noroeste 22 Noroeste 0 -- -- 95
2021-02-07 08:00:00 4 8 Oeste 15 Oeste 0.2 -- -- 96
2021-02-07 07:00:00 5.2 4 Noroeste 15 Norte 0 -- -- 98
2021-02-07 06:00:00 6.2 7 Oeste 17 Oeste 0 -- -- 99
2021-02-07 05:00:00 6.5 7 Oeste 14 Oeste 0 -- -- 99
2021-02-07 04:00:00 6.5 9 Oeste 18 Noroeste 0.4 -- -- 99
2021-02-07 03:00:00 6.5 9 Oeste 22 Oeste 0.2 -- -- 98
2021-02-07 02:00:00 6.6 10 Oeste 19 Oeste 0.2 -- -- 98
2021-02-07 01:00:00 6.6 6 Oeste 17 Noroeste 1 -- -- 97
2021-02-07 00:00:00 6.8 10 Oeste 16 Noroeste 0 -- -- 95
2021-02-06 23:00:00 6.9 6 Oeste 13 Noroeste 0 -- -- 95
2021-02-06 22:00:00 6.8 6 Oeste 17 Oeste 0 -- -- 94
2021-02-06 21:00:00 7 8 Oeste 17 Oeste 0 -- -- 92
2021-02-06 20:00:00 7.3 10 Oeste 22 Noroeste 0 -- -- 92
2021-02-06 19:00:00 7.4 5 Sudoeste 12 Oeste 0 -- -- 92
2021-02-06 18:00:00 7.5 4 Noroeste 14 Oeste 0.2 -- -- 92
2021-02-06 17:00:00 7.4 8 Oeste 17 Sudoeste 0.2 -- -- 90
2021-02-06 16:00:00 8.1 7 Oeste 16 Sudoeste 0 -- -- 87
2021-02-06 15:00:00 8.2 8 Oeste 27 Sudoeste 0 -- -- 85
2021-02-06 14:00:00 9.4 19 Sudoeste 33 Sudoeste 0 -- -- 77
2021-02-06 13:00:00 8.7 22 Sudoeste 37 Sudoeste 0.2 -- -- 86
2021-02-06 12:00:00 8.5 16 Sudoeste 25 Sudoeste 0 -- -- 93
2021-02-06 11:00:00 7.1 4 Sur 7 Sur 0.2 -- -- 100
2021-02-06 10:00:00 6.6 0 Calma 5 Nordeste 0 -- -- 100
2021-02-06 09:00:00 5.6 0 Calma 7 Norte 0 -- -- 100
2021-02-06 08:00:00 5.3 3 Nordeste 5 Nordeste 0 -- -- 99
2021-02-06 07:00:00 5.6 0 Calma 11 Oeste 0.2 -- -- 99
2021-02-06 06:00:00 6.2 14 Sudoeste 29 Oeste 0.4 -- -- 99
2021-02-06 05:00:00 5.8 8 Sur 13 Sur 0 -- -- 98
2021-02-06 04:00:00 6.5 0 Calma 8 Nordeste 0 -- -- 96
2021-02-06 03:00:00 7.3 2 Este 14 Este 0.2 -- -- 97
2021-02-06 02:00:00 7.5 5 Sudeste 12 Norte 2.2 -- -- 96
2021-02-06 01:00:00 7.4 6 Nordeste 12 Nordeste 0 -- -- 94
2021-02-06 00:00:00 7.3 3 Norte 15 Este 0 -- -- 94
2021-02-05 23:00:00 7.2 5 Norte 13 Sudeste 0 -- -- 93
2021-02-05 22:00:00 7.1 8 Este 18 Sudeste 0 -- -- 94
2021-02-05 21:00:00 7.2 7 Este 22 Sudeste 0 -- -- 92
2021-02-05 20:00:00 7.6 8 Este 27 Este 0 -- -- 91
2021-02-05 19:00:00 7.9 13 Este 39 Este 0 -- -- 89
2021-02-05 18:00:00 9.2 17 Este 37 Este 0 -- -- 85
2021-02-05 17:00:00 11.7 14 Este 35 Este 0 -- -- 77
2021-02-05 16:00:00 12.8 14 Este 32 Sudeste 0 -- -- 73
2021-02-05 15:00:00 13.5 15 Este 36 Este 0 -- -- 72
2021-02-05 14:00:00 13.4 12 Este 35 Este 0 -- -- 72
2021-02-05 13:00:00 12.3 13 Este 37 Este 0 -- -- 80
2021-02-05 12:00:00 10.7 17 Este 39 Este 0 -- -- 84
2021-02-05 11:00:00 8.7 13 Este 37 Este 0 -- -- 92
2021-02-05 10:00:00 7.5 14 Este 32 Este 0 -- -- 96
2021-02-05 09:00:00 6.5 11 Este 27 Este 0 -- -- 97
2021-02-05 08:00:00 6.2 9 Este 26 Sudeste 0 -- -- 95
2021-02-05 07:00:00 7 7 Este 20 Este 0 -- -- 88
2021-02-05 06:00:00 7.8 6 Este 18 Este 0 -- -- 85
2021-02-05 05:00:00 8.5 5 Este 17 Nordeste 0 -- -- 82
2021-02-05 04:00:00 8.8 10 Nordeste 23 Sudeste 0 -- -- 81
2021-02-05 03:00:00 8.9 5 Este 16 Este 0 -- -- 80
2021-02-05 02:00:00 8.8 4 Norte 18 Nordeste 0 -- -- 82
2021-02-05 01:00:00 9.2 7 Nordeste 18 Nordeste 0 -- -- 81
2021-02-05 00:00:00 9.3 6 Nordeste 12 Este 0 -- -- 83
2021-02-04 23:00:00 9.5 8 Nordeste 14 Este 0 -- -- 82
2021-02-04 22:00:00 10 6 Nordeste 14 Nordeste 0 -- -- 82
2021-02-04 21:00:00 10.9 4 Nordeste 14 Este 0 -- -- 80
2021-02-04 20:00:00 11.7 4 Este 17 Este 0 -- -- 78
2021-02-04 19:00:00 12.5 8 Sudeste 15 Sudeste 0 -- -- 76
2021-02-04 18:00:00 14.1 6 Este 17 Este 0 -- -- 71
2021-02-04 17:00:00 15.5 8 Sudeste 22 Sudeste 0 -- -- 63
2021-02-04 16:00:00 16.8 13 Sudeste 24 Sudeste 0 -- -- 56
2021-02-04 15:00:00 16.4 8 Este 22 Sudeste 0 -- -- 59
2021-02-04 14:00:00 14.7 10 Sudeste 26 Este 0 -- -- 63
2021-02-04 13:00:00 15.4 15 Sudeste 28 Sudeste 0 -- -- 61
2021-02-04 12:00:00 13.9 10 Este 25 Este 0 -- -- 73
2021-02-04 11:00:00 10.6 5 Este 12 Nordeste 0 -- -- 95
2021-02-04 10:00:00 7.6 4 Nordeste 13 Oeste 0 -- -- 97
2021-02-04 09:00:00 6.2 8 Nordeste 13 Nordeste 0 -- -- 97
2021-02-04 08:00:00 5.3 3 Nordeste 6 Nordeste 0 -- -- 97
2021-02-04 07:00:00 5.1 3 Nordeste 8 Nordeste 0 -- -- 97
2021-02-04 06:00:00 5.1 0 Calma 8 Norte 0 -- -- 96
2021-02-04 05:00:00 5.7 4 Norte 8 Norte 0 -- -- 96
2021-02-04 04:00:00 5.6 2 Este 6 Norte 0 -- -- 96
2021-02-04 03:00:00 5.8 0 Calma 5 Nordeste 0 -- -- 96
2021-02-04 02:00:00 6 3 Nordeste 5 Norte 0 -- -- 95
2021-02-04 01:00:00 6.3 3 Nordeste 6 Nordeste 0 -- -- 94
2021-02-04 00:00:00 6.8 4 Nordeste 6 Norte 0 -- -- 93
2021-02-03 23:00:00 6.4 2 Nordeste 5 Nordeste 0 -- -- 94
2021-02-03 22:00:00 6.7 0 Calma 5 Nordeste 0 -- -- 91
2021-02-03 21:00:00 7.9 3 Nordeste 5 Nordeste 0 -- -- 89
2021-02-03 20:00:00 9.4 4 Nordeste 6 Nordeste 0 -- -- 86
2021-02-03 19:00:00 10.8 0 Calma 7 Oeste 0 -- -- 80
2021-02-03 18:00:00 12.3 6 Noroeste 20 Noroeste 0 -- -- 75
2021-02-03 17:00:00 13.2 14 Noroeste 24 Noroeste 0 -- -- 70
2021-02-03 16:00:00 13.3 13 Noroeste 25 Noroeste 0 -- -- 70
2021-02-03 15:00:00 13.3 14 Noroeste 24 Oeste 0 -- -- 70
2021-02-03 14:00:00 12.8 12 Noroeste 23 Noroeste 0 -- -- 71
2021-02-03 13:00:00 11.6 12 Oeste 29 Sudoeste 0 -- -- 76
2021-02-03 12:00:00 11 14 Oeste 26 Noroeste 0 -- -- 78
2021-02-03 11:00:00 9.6 11 Oeste 21 Oeste 0 -- -- 84
2021-02-03 10:00:00 8 5 Oeste 13 Noroeste 0 -- -- 93
2021-02-03 09:00:00 7.1 4 Oeste 17 Oeste 0 -- -- 93
2021-02-03 08:00:00 7.3 9 Oeste 18 Oeste 0 -- -- 92
2021-02-03 07:00:00 7.3 9 Oeste 16 Noroeste 0 -- -- 92
2021-02-03 06:00:00 7.4 5 Oeste 14 Oeste 0 -- -- 91
2021-02-03 05:00:00 7.6 5 Oeste 12 Oeste 0 -- -- 90
2021-02-03 04:00:00 7.8 8 Oeste 15 Oeste 0 -- -- 87
2021-02-03 03:00:00 7.9 7 Oeste 17 Oeste 0 -- -- 86
2021-02-03 02:00:00 8 9 Oeste 21 Oeste 0 -- -- 86
2021-02-03 01:00:00 8.3 12 Oeste 26 Oeste 0 -- -- 89
2021-02-03 00:00:00 8.6 10 Oeste 21 Oeste 0 -- -- 89
2021-02-02 23:00:00 8.8 7 Oeste 14 Oeste 0 -- -- 88
2021-02-02 22:00:00 7.4 2 Oeste 7 Noroeste 0 -- -- 91
2021-02-02 21:00:00 7.2 0 Calma 7 Noroeste 0 -- -- 88
2021-02-02 20:00:00 8.3 3 Noroeste 12 Noroeste 0 -- -- 84
2021-02-02 19:00:00 10 5 Noroeste 19 Noroeste 0 -- -- 79
2021-02-02 18:00:00 12.1 9 Oeste 27 Oeste 0 -- -- 72
2021-02-02 17:00:00 12.6 17 Oeste 29 Oeste 0 -- -- 70
2021-02-02 16:00:00 12.8 17 Noroeste 32 Oeste 0 -- -- 71
2021-02-02 15:00:00 13.5 19 Oeste 34 Noroeste 0 -- -- 69
2021-02-02 14:00:00 13.2 19 Oeste 36 Noroeste 0 -- -- 70
2021-02-02 13:00:00 11.5 16 Noroeste 28 Noroeste 0 -- -- 87
2021-02-02 12:00:00 9.7 13 Oeste 26 Oeste 0 -- -- 98
2021-02-02 11:00:00 8.4 13 Oeste 25 Oeste 0 -- -- 100
2021-02-02 10:00:00 7.6 13 Oeste 22 Oeste 0 -- -- 100
2021-02-02 09:00:00 7.3 9 Oeste 23 Oeste 0 -- -- 100
2021-02-02 08:00:00 7 10 Oeste 22 Oeste 0 -- -- 100
2021-02-02 07:00:00 6.8 9 Oeste 26 Oeste 0 -- -- 99
2021-02-02 06:00:00 6.9 12 Oeste 25 Oeste 0 -- -- 99
2021-02-02 05:00:00 7 7 Oeste 23 Sudoeste 0 -- -- 98
2021-02-02 04:00:00 7.1 13 Oeste 25 Oeste 0 -- -- 98
2021-02-02 03:00:00 7.1 11 Oeste 23 Oeste 0 -- -- 97
2021-02-02 02:00:00 7.4 9 Oeste 19 Oeste 0 -- -- 96
2021-02-02 01:00:00 7.6 10 Oeste 24 Sudoeste 0 -- -- 95
2021-02-02 00:00:00 8.1 13 Oeste 21 Oeste 0 -- -- 93
2021-02-01 23:00:00 8.7 6 Noroeste 30 Oeste 0 -- -- 91
2021-02-01 22:00:00 8.8 14 Oeste 32 Oeste 0 -- -- 90
2021-02-01 21:00:00 9.4 14 Oeste 33 Oeste 0 -- -- 87
2021-02-01 20:00:00 10.5 13 Oeste 29 Oeste 0 -- -- 82
2021-02-01 19:00:00 11.1 15 Oeste 35 Oeste 0 -- -- 82
2021-02-01 18:00:00 11.9 21 Oeste 41 Oeste 0 -- -- 81
2021-02-01 17:00:00 12.6 21 Oeste 49 Oeste 0 -- -- 79
2021-02-01 16:00:00 13.5 24 Oeste 43 Oeste 0 -- -- 71
2021-02-01 15:00:00 12.9 27 Oeste 44 Oeste 0 -- -- 79
2021-02-01 14:00:00 12.7 22 Oeste 44 Oeste 0 -- -- 77
2021-02-01 13:00:00 11.4 22 Oeste 41 Noroeste 0 -- -- 81
2021-02-01 12:00:00 10.1 22 Oeste 43 Oeste 0 -- -- 85
2021-02-01 11:00:00 8.5 23 Oeste 42 Noroeste 0 -- -- 91
2021-02-01 10:00:00 8.1 16 Oeste 39 Oeste 0 -- -- 94
2021-02-01 09:00:00 8.1 15 Oeste 38 Oeste 0 -- -- 95
2021-02-01 08:00:00 8.1 18 Oeste 35 Oeste 0 -- -- 95
2021-02-01 07:00:00 8.4 19 Oeste 41 Oeste 0 -- -- 95
2021-02-01 06:00:00 8.7 23 Oeste 46 Oeste 0 -- -- 95
2021-02-01 05:00:00 9 19 Oeste 40 Oeste 0 -- -- 97
2021-02-01 04:00:00 9.3 19 Oeste 41 Sudoeste 0 -- -- 96
2021-02-01 03:00:00 9.9 26 Oeste 46 Oeste 0 -- -- 94
2021-02-01 02:00:00 10.1 16 Oeste 37 Oeste 0 -- -- 94
2021-02-01 01:00:00 10.4 14 Oeste 35 Oeste 0 -- -- 96
2021-02-01 00:00:00 10.4 19 Oeste 39 Oeste 0 -- -- 98
2021-01-31 23:00:00 10.5 20 Oeste 42 Oeste 0 -- -- 98
2021-01-31 22:00:00 10.3 26 Oeste 46 Oeste 0 -- -- 99
2021-01-31 21:00:00 10 22 Oeste 43 Oeste 0 -- -- 99
2021-01-31 20:00:00 9.7 22 Oeste 51 Oeste 0 -- -- 98
2021-01-31 19:00:00 9.6 25 Oeste 45 Oeste 0 -- -- 97
2021-01-31 18:00:00 9.3 20 Oeste 44 Oeste 0.2 -- -- 98
2021-01-31 17:00:00 9.1 20 Oeste 42 Oeste 0.4 -- -- 98
2021-01-31 16:00:00 8.8 24 Oeste 47 Oeste 0.4 -- -- 97
2021-01-31 15:00:00 8.5 16 Oeste 39 Oeste 0.2 -- -- 96
2021-01-31 14:00:00 7.9 19 Oeste 48 Oeste 0 -- -- 94
2021-01-31 13:00:00 7.7 23 Oeste 42 Oeste 0 -- -- 92
2021-01-31 12:00:00 7.9 24 Oeste 50 Oeste 0 -- -- 87
2021-01-31 11:00:00 7.4 30 Oeste 51 Noroeste 0 -- -- 86
2021-01-31 10:00:00 5.7 20 Oeste 42 Oeste 0 -- -- 92
2021-01-31 09:00:00 5.1 15 Oeste 35 Oeste 0 -- -- 93
2021-01-31 08:00:00 4.8 13 Oeste 40 Oeste 0 -- -- 93
2021-01-31 07:00:00 5 21 Oeste 41 Oeste 0 -- -- 90
2021-01-31 06:00:00 5.3 16 Oeste 36 Oeste 0 -- -- 89
2021-01-31 05:00:00 6 22 Oeste 46 Oeste 0 -- -- 87
2021-01-31 04:00:00 5.9 17 Oeste 42 Oeste 0 -- -- 90
2021-01-31 03:00:00 6.1 15 Oeste 37 Oeste 0 -- -- 88
2021-01-31 02:00:00 6.2 17 Oeste 46 Noroeste 0 -- -- 86
2021-01-31 01:00:00 6 17 Oeste 37 Oeste 0 -- -- 90
2021-01-31 00:00:00 6.3 24 Oeste 48 Oeste 0.2 -- -- 89